sensor_id;sensor_type;location;lat;lon;timestamp;P1;durP1;ratioP1;P2;durP2;ratioP2
11761;SDS011;5938;47.098;15.474;2023-03-23T00:03:21;15.23;;;9.10;;
11761;SDS011;5938;47.098;15.474;2023-03-23T00:07:24;11.77;;;8.50;;
11761;SDS011;5938;47.098;15.474;2023-03-23T00:11:28;12.57;;;7.97;;
11761;SDS011;5938;47.098;15.474;2023-03-23T00:15:31;11.80;;;7.37;;
11761;SDS011;5938;47.098;15.474;2023-03-23T00:19:37;11.10;;;8.20;;
11761;SDS011;5938;47.098;15.474;2023-03-23T00:23:46;9.33;;;7.07;;
11761;SDS011;5938;47.098;15.474;2023-03-23T00:27:48;8.73;;;7.83;;
11761;SDS011;5938;47.098;15.474;2023-03-23T00:31:50;9.33;;;6.80;;
11761;SDS011;5938;47.098;15.474;2023-03-23T00:35:54;7.40;;;6.70;;
11761;SDS011;5938;47.098;15.474;2023-03-23T00:39:57;7.50;;;6.20;;
11761;SDS011;5938;47.098;15.474;2023-03-23T00:44:00;8.33;;;7.13;;
11761;SDS011;5938;47.098;15.474;2023-03-23T00:48:05;8.60;;;7.70;;
11761;SDS011;5938;47.098;15.474;2023-03-23T00:52:09;7.23;;;6.53;;
11761;SDS011;5938;47.098;15.474;2023-03-23T00:56:12;10.40;;;7.40;;
11761;SDS011;5938;47.098;15.474;2023-03-23T01:00:16;9.00;;;7.17;;
11761;SDS011;5938;47.098;15.474;2023-03-23T01:04:19;9.43;;;7.00;;
11761;SDS011;5938;47.098;15.474;2023-03-23T01:08:23;6.23;;;5.63;;
11761;SDS011;5938;47.098;15.474;2023-03-23T01:12:25;6.93;;;6.27;;
11761;SDS011;5938;47.098;15.474;2023-03-23T01:16:28;9.70;;;6.50;;
11761;SDS011;5938;47.098;15.474;2023-03-23T01:20:30;10.80;;;7.73;;
11761;SDS011;5938;47.098;15.474;2023-03-23T01:24:35;9.80;;;7.00;;
11761;SDS011;5938;47.098;15.474;2023-03-23T01:28:37;8.90;;;6.77;;
11761;SDS011;5938;47.098;15.474;2023-03-23T01:32:40;8.13;;;7.33;;
11761;SDS011;5938;47.098;15.474;2023-03-23T01:36:42;9.40;;;7.00;;
11761;SDS011;5938;47.098;15.474;2023-03-23T01:40:45;10.60;;;7.30;;
11761;SDS011;5938;47.098;15.474;2023-03-23T01:49:24;9.83;;;7.50;;
11761;SDS011;5938;47.098;15.474;2023-03-23T01:53:30;8.03;;;7.00;;
11761;SDS011;5938;47.098;15.474;2023-03-23T01:57:37;9.90;;;8.07;;
11761;SDS011;5938;47.098;15.474;2023-03-23T02:01:40;8.50;;;6.90;;
11761;SDS011;5938;47.098;15.474;2023-03-23T02:05:45;10.67;;;6.40;;
11761;SDS011;5938;47.098;15.474;2023-03-23T02:09:49;8.97;;;8.07;;
11761;SDS011;5938;47.098;15.474;2023-03-23T02:13:52;10.73;;;6.70;;
11761;SDS011;5938;47.098;15.474;2023-03-23T02:17:57;8.30;;;7.37;;
11761;SDS011;5938;47.098;15.474;2023-03-23T02:26:43;8.57;;;7.33;;
11761;SDS011;5938;47.098;15.474;2023-03-23T02:30:58;7.87;;;6.60;;
11761;SDS011;5938;47.098;15.474;2023-03-23T02:35:09;8.77;;;7.10;;
11761;SDS011;5938;47.098;15.474;2023-03-23T02:39:19;10.33;;;8.40;;
11761;SDS011;5938;47.098;15.474;2023-03-23T02:43:26;10.70;;;7.57;;
11761;SDS011;5938;47.098;15.474;2023-03-23T02:47:31;7.40;;;6.57;;
11761;SDS011;5938;47.098;15.474;2023-03-23T02:51:38;8.90;;;7.97;;
11761;SDS011;5938;47.098;15.474;2023-03-23T02:55:42;8.10;;;6.93;;
11761;SDS011;5938;47.098;15.474;2023-03-23T02:59:45;8.53;;;7.40;;
11761;SDS011;5938;47.098;15.474;2023-03-23T03:03:48;7.73;;;6.60;;
11761;SDS011;5938;47.098;15.474;2023-03-23T03:07:56;11.07;;;7.40;;
11761;SDS011;5938;47.098;15.474;2023-03-23T03:12:04;10.30;;;7.50;;
11761;SDS011;5938;47.098;15.474;2023-03-23T03:16:13;8.43;;;6.93;;
11761;SDS011;5938;47.098;15.474;2023-03-23T03:20:20;14.40;;;9.23;;
11761;SDS011;5938;47.098;15.474;2023-03-23T03:24:27;13.17;;;9.13;;
11761;SDS011;5938;47.098;15.474;2023-03-23T03:28:31;14.47;;;9.00;;
11761;SDS011;5938;47.098;15.474;2023-03-23T03:32:36;19.40;;;10.87;;
11761;SDS011;5938;47.098;15.474;2023-03-23T03:36:44;11.33;;;8.43;;
11761;SDS011;5938;47.098;15.474;2023-03-23T03:40:50;10.13;;;7.70;;
11761;SDS011;5938;47.098;15.474;2023-03-23T03:44:52;10.17;;;7.37;;
11761;SDS011;5938;47.098;15.474;2023-03-23T03:48:55;9.93;;;8.97;;
11761;SDS011;5938;47.098;15.474;2023-03-23T03:52:57;12.10;;;9.00;;
11761;SDS011;5938;47.098;15.474;2023-03-23T03:57:01;13.07;;;7.60;;
11761;SDS011;5938;47.098;15.474;2023-03-23T04:01:04;8.40;;;6.87;;
11761;SDS011;5938;47.098;15.474;2023-03-23T04:05:07;10.33;;;8.33;;
11761;SDS011;5938;47.098;15.474;2023-03-23T04:09:11;11.97;;;7.43;;
11761;SDS011;5938;47.098;15.474;2023-03-23T04:13:16;11.47;;;8.53;;
11761;SDS011;5938;47.098;15.474;2023-03-23T04:17:19;9.40;;;8.13;;
11761;SDS011;5938;47.098;15.474;2023-03-23T04:21:22;14.63;;;8.20;;
11761;SDS011;5938;47.098;15.474;2023-03-23T04:25:28;9.97;;;8.00;;
11761;SDS011;5938;47.098;15.474;2023-03-23T04:29:34;9.23;;;7.13;;
11761;SDS011;5938;47.098;15.474;2023-03-23T04:33:37;8.03;;;7.23;;
11761;SDS011;5938;47.098;15.474;2023-03-23T04:37:41;9.30;;;7.73;;
11761;SDS011;5938;47.098;15.474;2023-03-23T04:41:43;8.93;;;7.67;;
11761;SDS011;5938;47.098;15.474;2023-03-23T04:45:51;9.57;;;7.53;;
11761;SDS011;5938;47.098;15.474;2023-03-23T04:49:56;7.87;;;7.07;;
11761;SDS011;5938;47.098;15.474;2023-03-23T04:53:58;11.00;;;8.10;;
11761;SDS011;5938;47.098;15.474;2023-03-23T04:58:01;10.13;;;7.17;;
11761;SDS011;5938;47.098;15.474;2023-03-23T05:02:05;11.13;;;7.47;;
11761;SDS011;5938;47.098;15.474;2023-03-23T05:06:08;7.83;;;6.40;;
11761;SDS011;5938;47.098;15.474;2023-03-23T05:10:10;10.20;;;7.70;;
11761;SDS011;5938;47.098;15.474;2023-03-23T05:14:14;12.23;;;9.43;;
11761;SDS011;5938;47.098;15.474;2023-03-23T05:18:18;10.33;;;7.37;;
11761;SDS011;5938;47.098;15.474;2023-03-23T05:22:21;13.00;;;8.60;;
11761;SDS011;5938;47.098;15.474;2023-03-23T05:26:24;8.20;;;7.40;;
11761;SDS011;5938;47.098;15.474;2023-03-23T05:30:29;11.10;;;9.00;;
11761;SDS011;5938;47.098;15.474;2023-03-23T05:34:33;10.60;;;9.60;;
11761;SDS011;5938;47.098;15.474;2023-03-23T05:38:35;11.33;;;8.70;;
11761;SDS011;5938;47.098;15.474;2023-03-23T05:42:41;12.50;;;8.93;;
11761;SDS011;5938;47.098;15.474;2023-03-23T05:46:45;13.90;;;10.77;;
11761;SDS011;5938;47.098;15.474;2023-03-23T05:50:50;11.07;;;8.67;;
11761;SDS011;5938;47.098;15.474;2023-03-23T05:54:53;10.93;;;9.80;;
11761;SDS011;5938;47.098;15.474;2023-03-23T05:58:56;16.00;;;9.70;;
11761;SDS011;5938;47.098;15.474;2023-03-23T06:02:59;12.07;;;9.80;;
11761;SDS011;5938;47.098;15.474;2023-03-23T06:07:04;11.53;;;10.43;;
11761;SDS011;5938;47.098;15.474;2023-03-23T06:11:06;10.20;;;8.93;;
11761;SDS011;5938;47.098;15.474;2023-03-23T06:15:09;14.97;;;10.77;;
11761;SDS011;5938;47.098;15.474;2023-03-23T06:19:12;13.37;;;11.17;;
11761;SDS011;5938;47.098;15.474;2023-03-23T06:23:17;10.93;;;9.93;;
11761;SDS011;5938;47.098;15.474;2023-03-23T06:27:19;12.80;;;11.47;;
11761;SDS011;5938;47.098;15.474;2023-03-23T06:31:22;13.60;;;11.83;;
11761;SDS011;5938;47.098;15.474;2023-03-23T06:35:25;14.77;;;11.80;;
11761;SDS011;5938;47.098;15.474;2023-03-23T06:39:29;11.43;;;10.17;;
11761;SDS011;5938;47.098;15.474;2023-03-23T06:43:32;12.73;;;11.27;;
11761;SDS011;5938;47.098;15.474;2023-03-23T06:47:36;13.17;;;11.97;;
11761;SDS011;5938;47.098;15.474;2023-03-23T06:51:39;12.40;;;11.10;;
11761;SDS011;5938;47.098;15.474;2023-03-23T06:55:43;16.20;;;14.20;;
11761;SDS011;5938;47.098;15.474;2023-03-23T06:59:46;18.90;;;14.70;;
11761;SDS011;5938;47.098;15.474;2023-03-23T07:03:48;20.10;;;13.87;;
11761;SDS011;5938;47.098;15.474;2023-03-23T07:07:51;17.30;;;13.00;;
11761;SDS011;5938;47.098;15.474;2023-03-23T07:11:55;13.63;;;12.33;;
11761;SDS011;5938;47.098;15.474;2023-03-23T07:15:57;12.10;;;10.83;;
11761;SDS011;5938;47.098;15.474;2023-03-23T07:20:00;17.53;;;11.73;;
11761;SDS011;5938;47.098;15.474;2023-03-23T07:24:04;14.97;;;11.00;;
11761;SDS011;5938;47.098;15.474;2023-03-23T07:28:08;19.63;;;10.93;;
11761;SDS011;5938;47.098;15.474;2023-03-23T07:32:11;10.63;;;9.63;;
11761;SDS011;5938;47.098;15.474;2023-03-23T07:36:14;18.67;;;11.40;;
11761;SDS011;5938;47.098;15.474;2023-03-23T07:40:17;10.20;;;8.80;;
11761;SDS011;5938;47.098;15.474;2023-03-23T07:44:23;12.13;;;8.43;;
11761;SDS011;5938;47.098;15.474;2023-03-23T07:48:26;15.40;;;9.43;;
11761;SDS011;5938;47.098;15.474;2023-03-23T07:52:29;8.37;;;7.57;;
11761;SDS011;5938;47.098;15.474;2023-03-23T07:56:31;10.33;;;6.60;;
11761;SDS011;5938;47.098;15.474;2023-03-23T08:00:35;7.53;;;6.83;;
11761;SDS011;5938;47.098;15.474;2023-03-23T08:04:39;9.20;;;6.77;;
11761;SDS011;5938;47.098;15.474;2023-03-23T08:08:42;9.00;;;6.30;;
11761;SDS011;5938;47.098;15.474;2023-03-23T08:12:46;10.77;;;6.60;;
11761;SDS011;5938;47.098;15.474;2023-03-23T08:16:49;9.13;;;6.83;;
11761;SDS011;5938;47.098;15.474;2023-03-23T08:20:52;9.57;;;6.97;;
11761;SDS011;5938;47.098;15.474;2023-03-23T08:25:24;7.13;;;6.43;;
11761;SDS011;5938;47.098;15.474;2023-03-23T08:29:22;10.80;;;6.70;;
11761;SDS011;5938;47.098;15.474;2023-03-23T08:33:26;7.47;;;6.77;;
11761;SDS011;5938;47.098;15.474;2023-03-23T08:37:29;8.90;;;6.67;;
11761;SDS011;5938;47.098;15.474;2023-03-23T08:41:31;12.43;;;7.30;;
11761;SDS011;5938;47.098;15.474;2023-03-23T08:45:34;10.93;;;7.60;;
11761;SDS011;5938;47.098;15.474;2023-03-23T08:49:38;8.20;;;7.43;;
11761;SDS011;5938;47.098;15.474;2023-03-23T08:53:40;10.20;;;6.00;;
11761;SDS011;5938;47.098;15.474;2023-03-23T08:57:44;9.10;;;6.40;;
11761;SDS011;5938;47.098;15.474;2023-03-23T09:01:47;9.63;;;7.17;;
11761;SDS011;5938;47.098;15.474;2023-03-23T09:05:50;8.10;;;6.93;;
11761;SDS011;5938;47.098;15.474;2023-03-23T09:09:53;12.40;;;7.00;;
11761;SDS011;5938;47.098;15.474;2023-03-23T09:13:56;31.60;;;11.60;;
11761;SDS011;5938;47.098;15.474;2023-03-23T09:17:59;13.13;;;6.90;;
11761;SDS011;5938;47.098;15.474;2023-03-23T09:22:03;11.20;;;8.50;;
11761;SDS011;5938;47.098;15.474;2023-03-23T09:26:05;9.17;;;6.20;;
11761;SDS011;5938;47.098;15.474;2023-03-23T09:30:11;9.03;;;6.20;;
11761;SDS011;5938;47.098;15.474;2023-03-23T09:34:24;8.27;;;6.90;;
11761;SDS011;5938;47.098;15.474;2023-03-23T09:38:31;7.13;;;5.70;;
11761;SDS011;5938;47.098;15.474;2023-03-23T09:42:40;7.73;;;6.40;;
11761;SDS011;5938;47.098;15.474;2023-03-23T09:46:53;12.73;;;6.57;;
11761;SDS011;5938;47.098;15.474;2023-03-23T09:51:02;6.37;;;5.73;;
11761;SDS011;5938;47.098;15.474;2023-03-23T09:55:14;7.57;;;6.80;;
11761;SDS011;5938;47.098;15.474;2023-03-23T09:59:20;7.13;;;6.53;;
11761;SDS011;5938;47.098;15.474;2023-03-23T10:03:27;8.27;;;6.10;;
11761;SDS011;5938;47.098;15.474;2023-03-23T10:07:34;8.03;;;6.17;;
11761;SDS011;5938;47.098;15.474;2023-03-23T10:11:44;7.67;;;5.60;;
11761;SDS011;5938;47.098;15.474;2023-03-23T10:15:59;9.00;;;6.13;;
11761;SDS011;5938;47.098;15.474;2023-03-23T10:20:09;6.30;;;5.70;;
11761;SDS011;5938;47.098;15.474;2023-03-23T10:24:23;6.70;;;5.97;;
11761;SDS011;5938;47.098;15.474;2023-03-23T10:28:37;7.67;;;6.90;;
11761;SDS011;5938;47.098;15.474;2023-03-23T10:32:44;7.80;;;7.10;;
11761;SDS011;5938;47.098;15.474;2023-03-23T10:36:52;10.33;;;6.90;;
11761;SDS011;5938;47.098;15.474;2023-03-23T10:41:01;6.87;;;6.23;;
11761;SDS011;5938;47.098;15.474;2023-03-23T10:45:12;7.87;;;7.13;;
11761;SDS011;5938;47.098;15.474;2023-03-23T10:49:19;8.63;;;6.90;;
11761;SDS011;5938;47.098;15.474;2023-03-23T10:53:26;7.90;;;7.10;;
11761;SDS011;5938;47.098;15.474;2023-03-23T10:57:35;7.17;;;6.10;;
11761;SDS011;5938;47.098;15.474;2023-03-23T11:01:42;7.53;;;6.80;;
11761;SDS011;5938;47.098;15.474;2023-03-23T11:05:48;8.87;;;8.07;;
11761;SDS011;5938;47.098;15.474;2023-03-23T11:09:54;11.23;;;8.77;;
11761;SDS011;5938;47.098;15.474;2023-03-23T11:13:59;7.70;;;7.07;;
11761;SDS011;5938;47.098;15.474;2023-03-23T11:18:05;8.53;;;7.73;;
11761;SDS011;5938;47.098;15.474;2023-03-23T11:22:15;8.43;;;7.73;;
11761;SDS011;5938;47.098;15.474;2023-03-23T11:26:28;9.47;;;7.87;;
11761;SDS011;5938;47.098;15.474;2023-03-23T11:30:32;9.83;;;8.93;;
11761;SDS011;5938;47.098;15.474;2023-03-23T11:34:40;11.60;;;8.60;;
11761;SDS011;5938;47.098;15.474;2023-03-23T11:38:45;9.63;;;8.70;;
11761;SDS011;5938;47.098;15.474;2023-03-23T11:42:48;8.83;;;7.93;;
11761;SDS011;5938;47.098;15.474;2023-03-23T11:46:59;13.43;;;8.63;;
11761;SDS011;5938;47.098;15.474;2023-03-23T11:51:08;9.23;;;8.10;;
11761;SDS011;5938;47.098;15.474;2023-03-23T11:55:15;14.53;;;9.63;;
11761;SDS011;5938;47.098;15.474;2023-03-23T11:59:26;9.93;;;8.93;;
11761;SDS011;5938;47.098;15.474;2023-03-23T12:03:36;11.80;;;8.03;;
11761;SDS011;5938;47.098;15.474;2023-03-23T12:07:56;8.00;;;7.20;;
11761;SDS011;5938;47.098;15.474;2023-03-23T12:12:12;10.10;;;7.57;;
11761;SDS011;5938;47.098;15.474;2023-03-23T12:16:22;9.53;;;8.53;;
11761;SDS011;5938;47.098;15.474;2023-03-23T12:20:35;9.70;;;8.90;;
11761;SDS011;5938;47.098;15.474;2023-03-23T12:24:49;8.53;;;7.80;;
11761;SDS011;5938;47.098;15.474;2023-03-23T12:29:16;9.63;;;8.73;;
11761;SDS011;5938;47.098;15.474;2023-03-23T12:33:48;9.27;;;8.37;;
11761;SDS011;5938;47.098;15.474;2023-03-23T12:37:59;8.80;;;7.93;;
11761;SDS011;5938;47.098;15.474;2023-03-23T12:42:14;9.50;;;8.50;;
11761;SDS011;5938;47.098;15.474;2023-03-23T12:50:45;8.70;;;8.10;;
11761;SDS011;5938;47.098;15.474;2023-03-23T12:54:51;9.80;;;9.00;;
11761;SDS011;5938;47.098;15.474;2023-03-23T12:59:05;9.23;;;8.23;;
11761;SDS011;5938;47.098;15.474;2023-03-23T13:03:14;10.00;;;9.13;;
11761;SDS011;5938;47.098;15.474;2023-03-23T13:07:21;9.10;;;8.30;;
11761;SDS011;5938;47.098;15.474;2023-03-23T13:11:29;9.60;;;8.60;;
11761;SDS011;5938;47.098;15.474;2023-03-23T13:15:37;9.17;;;8.30;;
11761;SDS011;5938;47.098;15.474;2023-03-23T13:24:37;12.83;;;8.47;;
11761;SDS011;5938;47.098;15.474;2023-03-23T13:28:54;7.80;;;7.13;;
11761;SDS011;5938;47.098;15.474;2023-03-23T13:33:04;10.87;;;8.77;;
11761;SDS011;5938;47.098;15.474;2023-03-23T13:37:10;7.83;;;7.23;;
11761;SDS011;5938;47.098;15.474;2023-03-23T13:41:22;10.87;;;9.77;;
11761;SDS011;5938;47.098;15.474;2023-03-23T13:45:35;9.73;;;8.80;;
11761;SDS011;5938;47.098;15.474;2023-03-23T13:49:47;8.50;;;7.70;;
11761;SDS011;5938;47.098;15.474;2023-03-23T13:53:53;9.37;;;8.43;;
11761;SDS011;5938;47.098;15.474;2023-03-23T13:58:22;13.30;;;7.80;;
11761;SDS011;5938;47.098;15.474;2023-03-23T14:02:29;9.03;;;8.33;;
11761;SDS011;5938;47.098;15.474;2023-03-23T14:06:39;9.57;;;8.77;;
11761;SDS011;5938;47.098;15.474;2023-03-23T14:10:42;10.07;;;8.90;;
11761;SDS011;5938;47.098;15.474;2023-03-23T14:14:51;9.27;;;8.47;;
11761;SDS011;5938;47.098;15.474;2023-03-23T14:19:00;9.13;;;8.33;;
11761;SDS011;5938;47.098;15.474;2023-03-23T14:23:05;9.43;;;8.50;;
11761;SDS011;5938;47.098;15.474;2023-03-23T14:27:17;9.40;;;8.70;;
11761;SDS011;5938;47.098;15.474;2023-03-23T14:31:21;9.50;;;8.70;;
11761;SDS011;5938;47.098;15.474;2023-03-23T14:35:26;9.00;;;8.27;;
11761;SDS011;5938;47.098;15.474;2023-03-23T14:39:32;7.77;;;7.07;;
11761;SDS011;5938;47.098;15.474;2023-03-23T14:43:37;8.10;;;7.30;;
11761;SDS011;5938;47.098;15.474;2023-03-23T14:47:40;8.20;;;7.37;;
11761;SDS011;5938;47.098;15.474;2023-03-23T14:51:49;7.43;;;6.83;;
11761;SDS011;5938;47.098;15.474;2023-03-23T14:55:54;11.07;;;8.70;;
11761;SDS011;5938;47.098;15.474;2023-03-23T14:59:57;8.00;;;7.30;;
11761;SDS011;5938;47.098;15.474;2023-03-23T15:04:01;9.73;;;7.50;;
11761;SDS011;5938;47.098;15.474;2023-03-23T15:08:08;8.73;;;7.93;;
11761;SDS011;5938;47.098;15.474;2023-03-23T15:12:20;9.63;;;7.37;;
11761;SDS011;5938;47.098;15.474;2023-03-23T15:16:25;8.60;;;7.77;;
11761;SDS011;5938;47.098;15.474;2023-03-23T15:20:30;7.17;;;6.50;;
11761;SDS011;5938;47.098;15.474;2023-03-23T15:24:34;7.43;;;6.60;;
11761;SDS011;5938;47.098;15.474;2023-03-23T15:28:42;6.17;;;5.23;;
11761;SDS011;5938;47.098;15.474;2023-03-23T15:32:45;6.90;;;6.20;;
11761;SDS011;5938;47.098;15.474;2023-03-23T15:36:51;7.80;;;5.43;;
11761;SDS011;5938;47.098;15.474;2023-03-23T15:40:57;6.60;;;6.00;;
11761;SDS011;5938;47.098;15.474;2023-03-23T15:45:20;10.10;;;6.03;;
11761;SDS011;5938;47.098;15.474;2023-03-23T15:49:26;7.30;;;5.67;;
11761;SDS011;5938;47.098;15.474;2023-03-23T15:53:29;6.00;;;5.40;;
11761;SDS011;5938;47.098;15.474;2023-03-23T15:57:34;7.77;;;5.60;;
11761;SDS011;5938;47.098;15.474;2023-03-23T16:01:38;6.27;;;5.40;;
11761;SDS011;5938;47.098;15.474;2023-03-23T16:05:44;8.07;;;5.80;;
11761;SDS011;5938;47.098;15.474;2023-03-23T16:09:48;5.70;;;5.03;;
11761;SDS011;5938;47.098;15.474;2023-03-23T16:13:54;9.50;;;6.07;;
11761;SDS011;5938;47.098;15.474;2023-03-23T16:17:59;6.17;;;5.50;;
11761;SDS011;5938;47.098;15.474;2023-03-23T16:22:02;6.23;;;5.67;;
11761;SDS011;5938;47.098;15.474;2023-03-23T16:26:06;6.27;;;5.77;;
11761;SDS011;5938;47.098;15.474;2023-03-23T16:30:12;8.80;;;5.67;;
11761;SDS011;5938;47.098;15.474;2023-03-23T16:34:20;8.80;;;5.90;;
11761;SDS011;5938;47.098;15.474;2023-03-23T16:38:23;9.50;;;5.03;;
11761;SDS011;5938;47.098;15.474;2023-03-23T16:42:27;7.40;;;5.40;;
11761;SDS011;5938;47.098;15.474;2023-03-23T16:46:31;9.10;;;5.70;;
11761;SDS011;5938;47.098;15.474;2023-03-23T16:50:37;7.23;;;5.23;;
11761;SDS011;5938;47.098;15.474;2023-03-23T16:54:41;6.30;;;5.73;;
11761;SDS011;5938;47.098;15.474;2023-03-23T16:58:45;5.77;;;5.27;;
11761;SDS011;5938;47.098;15.474;2023-03-23T17:02:49;9.33;;;6.27;;
11761;SDS011;5938;47.098;15.474;2023-03-23T17:06:56;11.53;;;5.30;;
11761;SDS011;5938;47.098;15.474;2023-03-23T17:11:00;5.23;;;4.73;;
11761;SDS011;5938;47.098;15.474;2023-03-23T17:15:04;10.77;;;6.10;;
11761;SDS011;5938;47.098;15.474;2023-03-23T17:19:09;7.27;;;5.90;;
11761;SDS011;5938;47.098;15.474;2023-03-23T17:23:16;7.17;;;6.47;;
11761;SDS011;5938;47.098;15.474;2023-03-23T17:27:20;10.73;;;7.67;;
11761;SDS011;5938;47.098;15.474;2023-03-23T17:31:25;12.07;;;8.00;;
11761;SDS011;5938;47.098;15.474;2023-03-23T17:35:30;13.80;;;8.27;;
11761;SDS011;5938;47.098;15.474;2023-03-23T17:39:36;15.43;;;7.27;;
11761;SDS011;5938;47.098;15.474;2023-03-23T17:43:45;15.93;;;8.77;;
11761;SDS011;5938;47.098;15.474;2023-03-23T17:47:52;9.33;;;7.27;;
11761;SDS011;5938;47.098;15.474;2023-03-23T17:52:00;19.10;;;7.67;;
11761;SDS011;5938;47.098;15.474;2023-03-23T17:56:06;7.43;;;6.30;;
11761;SDS011;5938;47.098;15.474;2023-03-23T18:00:10;7.90;;;6.87;;
11761;SDS011;5938;47.098;15.474;2023-03-23T18:04:17;9.20;;;7.10;;
11761;SDS011;5938;47.098;15.474;2023-03-23T18:08:26;10.83;;;6.60;;
11761;SDS011;5938;47.098;15.474;2023-03-23T18:12:38;8.13;;;6.50;;
11761;SDS011;5938;47.098;15.474;2023-03-23T18:16:43;9.60;;;7.10;;
11761;SDS011;5938;47.098;15.474;2023-03-23T18:20:52;11.67;;;8.40;;
11761;SDS011;5938;47.098;15.474;2023-03-23T18:24:58;8.77;;;7.57;;
11761;SDS011;5938;47.098;15.474;2023-03-23T18:29:05;10.33;;;7.50;;
11761;SDS011;5938;47.098;15.474;2023-03-23T18:33:17;17.20;;;9.30;;
11761;SDS011;5938;47.098;15.474;2023-03-23T18:37:23;12.37;;;9.80;;
11761;SDS011;5938;47.098;15.474;2023-03-23T18:41:27;10.17;;;9.10;;
11761;SDS011;5938;47.098;15.474;2023-03-23T18:45:34;13.53;;;8.87;;
11761;SDS011;5938;47.098;15.474;2023-03-23T18:49:39;8.37;;;7.30;;
11761;SDS011;5938;47.098;15.474;2023-03-23T18:53:48;15.70;;;7.60;;
11761;SDS011;5938;47.098;15.474;2023-03-23T18:57:52;22.40;;;7.73;;
11761;SDS011;5938;47.098;15.474;2023-03-23T19:02:00;9.17;;;7.33;;
11761;SDS011;5938;47.098;15.474;2023-03-23T19:06:08;8.90;;;8.03;;
11761;SDS011;5938;47.098;15.474;2023-03-23T19:10:19;9.17;;;8.20;;
11761;SDS011;5938;47.098;15.474;2023-03-23T19:14:24;9.00;;;7.47;;
11761;SDS011;5938;47.098;15.474;2023-03-23T19:18:33;10.30;;;7.33;;
11761;SDS011;5938;47.098;15.474;2023-03-23T19:22:39;9.63;;;8.83;;
11761;SDS011;5938;47.098;15.474;2023-03-23T19:26:44;8.77;;;7.97;;
11761;SDS011;5938;47.098;15.474;2023-03-23T19:30:52;9.50;;;8.30;;
11761;SDS011;5938;47.098;15.474;2023-03-23T19:35:04;9.07;;;8.17;;
11761;SDS011;5938;47.098;15.474;2023-03-23T19:39:11;9.47;;;8.13;;
11761;SDS011;5938;47.098;15.474;2023-03-23T19:43:16;9.77;;;8.77;;
11761;SDS011;5938;47.098;15.474;2023-03-23T19:47:22;10.87;;;9.77;;
11761;SDS011;5938;47.098;15.474;2023-03-23T19:51:29;12.07;;;9.80;;
11761;SDS011;5938;47.098;15.474;2023-03-23T19:55:36;15.67;;;10.20;;
11761;SDS011;5938;47.098;15.474;2023-03-23T19:59:41;15.33;;;10.33;;
11761;SDS011;5938;47.098;15.474;2023-03-23T20:03:49;10.43;;;9.43;;
11761;SDS011;5938;47.098;15.474;2023-03-23T20:08:01;17.10;;;10.40;;
11761;SDS011;5938;47.098;15.474;2023-03-23T20:12:13;12.10;;;10.57;;
11761;SDS011;5938;47.098;15.474;2023-03-23T20:16:19;10.97;;;9.77;;
11761;SDS011;5938;47.098;15.474;2023-03-23T20:20:29;11.33;;;9.00;;
11761;SDS011;5938;47.098;15.474;2023-03-23T20:24:56;10.40;;;8.90;;
11761;SDS011;5938;47.098;15.474;2023-03-23T20:29:01;11.37;;;9.57;;
11761;SDS011;5938;47.098;15.474;2023-03-23T20:33:10;10.07;;;9.07;;
11761;SDS011;5938;47.098;15.474;2023-03-23T20:37:17;13.20;;;10.13;;
11761;SDS011;5938;47.098;15.474;2023-03-23T20:41:26;10.97;;;9.97;;
11761;SDS011;5938;47.098;15.474;2023-03-23T20:45:32;12.30;;;10.50;;
11761;SDS011;5938;47.098;15.474;2023-03-23T20:49:38;12.57;;;9.40;;
11761;SDS011;5938;47.098;15.474;2023-03-23T20:53:54;10.83;;;9.70;;
11761;SDS011;5938;47.098;15.474;2023-03-23T20:58:05;11.60;;;10.43;;
11761;SDS011;5938;47.098;15.474;2023-03-23T21:02:13;12.00;;;9.93;;
11761;SDS011;5938;47.098;15.474;2023-03-23T21:06:19;11.50;;;10.30;;
11761;SDS011;5938;47.098;15.474;2023-03-23T21:10:29;13.97;;;10.83;;
11761;SDS011;5938;47.098;15.474;2023-03-23T21:14:36;12.57;;;10.30;;
11761;SDS011;5938;47.098;15.474;2023-03-23T21:18:41;11.70;;;10.50;;
11761;SDS011;5938;47.098;15.474;2023-03-23T21:22:46;11.23;;;10.10;;
11761;SDS011;5938;47.098;15.474;2023-03-23T21:26:50;22.17;;;11.83;;
11761;SDS011;5938;47.098;15.474;2023-03-23T21:30:59;12.20;;;10.97;;
11761;SDS011;5938;47.098;15.474;2023-03-23T21:35:04;11.00;;;9.63;;
11761;SDS011;5938;47.098;15.474;2023-03-23T21:39:10;22.80;;;12.90;;
11761;SDS011;5938;47.098;15.474;2023-03-23T21:43:16;16.57;;;12.47;;
11761;SDS011;5938;47.098;15.474;2023-03-23T21:47:20;15.13;;;10.20;;
11761;SDS011;5938;47.098;15.474;2023-03-23T21:51:25;13.33;;;10.37;;
11761;SDS011;5938;47.098;15.474;2023-03-23T21:55:30;18.27;;;12.37;;
11761;SDS011;5938;47.098;15.474;2023-03-23T21:59:34;16.50;;;11.80;;
11761;SDS011;5938;47.098;15.474;2023-03-23T22:03:39;19.77;;;10.40;;
11761;SDS011;5938;47.098;15.474;2023-03-23T22:07:43;13.60;;;9.77;;
11761;SDS011;5938;47.098;15.474;2023-03-23T22:11:48;12.30;;;10.57;;
11761;SDS011;5938;47.098;15.474;2023-03-23T22:15:51;11.17;;;10.07;;
11761;SDS011;5938;47.098;15.474;2023-03-23T22:19:56;16.33;;;12.60;;
11761;SDS011;5938;47.098;15.474;2023-03-23T22:24:00;12.87;;;11.50;;
11761;SDS011;5938;47.098;15.474;2023-03-23T22:28:04;12.77;;;10.50;;
11761;SDS011;5938;47.098;15.474;2023-03-23T22:32:07;12.23;;;10.93;;
11761;SDS011;5938;47.098;15.474;2023-03-23T22:36:13;14.07;;;10.60;;
11761;SDS011;5938;47.098;15.474;2023-03-23T22:40:18;16.33;;;12.40;;
11761;SDS011;5938;47.098;15.474;2023-03-23T22:44:24;14.40;;;10.53;;
11761;SDS011;5938;47.098;15.474;2023-03-23T23:01:20;15.77;;;12.30;;
11761;SDS011;5938;47.098;15.474;2023-03-23T23:05:24;15.43;;;11.93;;
11761;SDS011;5938;47.098;15.474;2023-03-23T23:09:28;17.20;;;11.70;;
11761;SDS011;5938;47.098;15.474;2023-03-23T23:13:32;13.27;;;11.70;;
11761;SDS011;5938;47.098;15.474;2023-03-23T23:17:37;13.40;;;12.00;;
11761;SDS011;5938;47.098;15.474;2023-03-23T23:21:40;13.17;;;11.77;;
11761;SDS011;5938;47.098;15.474;2023-03-23T23:25:44;13.73;;;11.27;;
11761;SDS011;5938;47.098;15.474;2023-03-23T23:29:48;20.50;;;12.27;;
11761;SDS011;5938;47.098;15.474;2023-03-23T23:33:54;13.90;;;12.50;;
11761;SDS011;5938;47.098;15.474;2023-03-23T23:37:58;15.60;;;11.27;;
11761;SDS011;5938;47.098;15.474;2023-03-23T23:42:02;14.23;;;12.67;;
11761;SDS011;5938;47.098;15.474;2023-03-23T23:46:06;15.70;;;12.60;;
11761;SDS011;5938;47.098;15.474;2023-03-23T23:50:12;14.57;;;11.80;;
11761;SDS011;5938;47.098;15.474;2023-03-23T23:54:15;14.30;;;12.03;;
11761;SDS011;5938;47.098;15.474;2023-03-23T23:58:23;14.80;;;13.20;;
